Time;durP1;ratioP1;P1;durP2;ratioP2;P2;SDS_P1;SDS_P2;PMS_P1;PMS_P2;Temp;Humidity;BMP_temperature;BMP_pressure;BME280_temperature;BME280_humidity;BME280_pressure;Samples;Min_cycle;Max_cycle;Signal;HPM_P1;HPM_P2
2023/02/11 00:01:18;;;;;;;6.85;2.92;;;6.70;89.30;;;;;;5083721;28;20090;-74
2023/02/11 00:03:44;;;;;;;5.35;3.00;;;6.60;89.20;;;;;;5084076;28;20058;-75
2023/02/11 00:06:10;;;;;;;6.68;3.63;;;6.70;89.30;;;;;;5083682;28;20040;-74
2023/02/11 00:08:36;;;;;;;5.07;2.60;;;6.80;89.30;;;;;;5047262;28;20059;-75
2023/02/11 00:11:02;;;;;;;6.68;3.22;;;6.70;89.30;;;;;;5048148;28;20398;-74
2023/02/11 00:13:28;;;;;;;6.50;3.10;;;6.70;89.30;;;;;;5083511;28;20047;-74
2023/02/11 00:15:54;;;;;;;4.82;2.80;;;6.70;89.30;;;;;;5048849;28;20040;-74
2023/02/11 00:18:19;;;;;;;4.50;2.40;;;6.70;89.30;;;;;;5064648;28;20049;-74
2023/02/11 00:20:45;;;;;;;5.22;2.58;;;6.70;89.30;;;;;;5079638;28;20103;-74
2023/02/11 00:23:11;;;;;;;5.43;2.25;;;6.60;89.30;;;;;;5063914;28;20102;-75
2023/02/11 00:25:42;;;;;;;5.47;2.30;;;6.70;89.40;;;;;;5083433;28;20040;-73
2023/02/11 00:28:09;;;;;;;4.18;2.38;;;6.60;89.90;;;;;;5081675;28;20060;-74
2023/02/11 00:30:34;;;;;;;4.32;2.30;;;6.60;89.30;;;;;;5079986;28;20106;-74
2023/02/11 00:33:00;;;;;;;4.97;2.80;;;6.70;89.40;;;;;;5081804;28;20410;-74
2023/02/11 00:35:26;;;;;;;5.03;2.55;;;6.70;89.40;;;;;;5083079;28;20053;-76
2023/02/11 00:37:54;;;;;;;4.85;2.30;;;6.70;89.40;;;;;;5064272;28;20033;-74
2023/02/11 00:40:20;;;;;;;5.00;2.50;;;6.60;89.30;;;;;;5081842;28;20085;-74
2023/02/11 00:42:45;;;;;;;5.85;2.72;;;6.70;89.40;;;;;;5081370;28;20040;-74
2023/02/11 00:45:11;;;;;;;3.83;2.35;;;6.70;89.40;;;;;;5061253;28;20048;-74
2023/02/11 00:47:37;;;;;;;5.13;2.35;;;6.60;89.30;;;;;;5063901;28;20071;-75
2023/02/11 00:50:04;;;;;;;5.50;2.00;;;6.70;89.40;;;;;;5064582;28;20072;-74
2023/02/11 00:52:31;;;;;;;3.90;2.13;;;6.60;89.40;;;;;;5064611;28;20478;-74
2023/02/11 00:54:57;;;;;;;5.78;2.40;;;6.60;89.40;;;;;;5080140;28;20062;-74
2023/02/11 00:57:23;;;;;;;6.13;2.75;;;6.70;89.40;;;;;;5082862;28;20083;-75
2023/02/11 00:59:49;;;;;;;4.85;2.30;;;6.70;89.40;;;;;;5080595;28;20134;-74
2023/02/11 01:02:15;;;;;;;5.18;2.38;;;6.70;89.40;;;;;;5078704;28;20115;-74
2023/02/11 01:04:41;;;;;;;3.45;2.00;;;6.60;89.30;;;;;;5079503;28;20055;-74
2023/02/11 01:07:07;;;;;;;4.25;2.00;;;6.70;89.40;;;;;;5079018;28;20045;-74
2023/02/11 01:09:33;;;;;;;3.58;1.60;;;6.60;89.40;;;;;;5078701;28;20052;-74
2023/02/11 01:11:58;;;;;;;4.47;2.38;;;6.70;89.50;;;;;;5062193;28;20040;-74
2023/02/11 01:14:24;;;;;;;5.18;1.90;;;6.60;89.40;;;;;;5080131;28;20113;-75
2023/02/11 01:16:50;;;;;;;2.97;1.90;;;6.60;89.40;;;;;;5063115;28;20041;-74
2023/02/11 01:19:15;;;;;;;3.28;1.92;;;6.70;89.50;;;;;;5080510;28;20037;-74
2023/02/11 01:21:41;;;;;;;4.53;1.92;;;6.80;89.60;;;;;;5059681;28;20045;-74
2023/02/11 01:24:06;;;;;;;3.65;1.77;;;6.60;89.40;;;;;;5060329;28;20029;-74
2023/02/11 01:26:32;;;;;;;3.65;1.80;;;6.60;89.50;;;;;;5078584;28;20040;-74
2023/02/11 01:28:59;;;;;;;3.67;1.70;;;6.60;89.60;;;;;;5080159;28;20074;-75
2023/02/11 01:31:25;;;;;;;7.28;1.50;;;6.60;89.60;;;;;;5062643;28;20103;-74
2023/02/11 01:33:51;;;;;;;3.13;1.83;;;6.60;90.10;;;;;;5081568;28;20087;-74
2023/02/11 01:36:17;;;;;;;3.08;1.73;;;6.60;89.70;;;;;;5080734;28;20044;-74
2023/02/11 01:38:43;;;;;;;4.15;2.03;;;6.60;89.70;;;;;;5063888;28;20028;-74
2023/02/11 01:41:11;;;;;;;3.55;1.83;;;6.50;89.70;;;;;;5080642;28;20100;-74
2023/02/11 01:43:41;;;;;;;5.07;1.88;;;6.50;89.70;;;;;;5063189;28;20563;-74
2023/02/11 01:46:28;;;;;;;3.95;2.03;;;6.50;89.80;;;;;;5083426;28;20090;-74
2023/02/11 01:49:03;;;;;;;2.90;1.73;;;6.50;89.80;;;;;;5081433;28;20044;-74
2023/02/11 01:51:35;;;;;;;5.13;2.03;;;6.50;89.80;;;;;;5065398;28;20067;-74
2023/02/11 01:59:37;;;;;;;4.35;1.73;;;6.50;89.80;;;;;;5082881;28;20048;-75
2023/02/11 02:02:08;;;;;;;2.97;1.63;;;6.50;89.80;;;;;;5083908;28;20037;-74
2023/02/11 02:04:43;;;;;;;4.53;1.88;;;6.50;89.70;;;;;;5065012;28;20051;-74
2023/02/11 02:07:16;;;;;;;3.80;1.67;;;6.50;89.70;;;;;;5065437;28;20099;-74
2023/02/11 02:09:47;;;;;;;4.53;1.60;;;6.60;89.80;;;;;;5065922;28;20044;-74
2023/02/11 02:12:13;;;;;;;2.15;1.38;;;6.50;89.80;;;;;;5048372;28;20044;-75
2023/02/11 02:14:40;;;;;;;2.47;1.58;;;6.50;89.80;;;;;;5061990;28;20502;-74
2023/02/11 02:17:09;;;;;;;3.35;1.40;;;6.50;89.80;;;;;;5064663;28;20125;-73
2023/02/11 02:20:00;;;;;;;2.45;1.40;;;6.50;89.80;;;;;;5064598;28;20048;-74
2023/02/11 02:22:47;;;;;;;2.85;1.42;;;6.50;89.90;;;;;;5081714;28;20043;-74
2023/02/11 02:25:34;;;;;;;2.40;1.35;;;6.50;89.80;;;;;;5048730;28;20502;-74
2023/02/11 02:28:22;;;;;;;2.55;1.38;;;6.50;89.80;;;;;;5048349;28;20066;-74
2023/02/11 02:31:08;;;;;;;3.20;1.55;;;6.50;89.80;;;;;;5064114;28;20048;-74
2023/02/11 02:33:53;;;;;;;3.60;1.60;;;6.50;89.80;;;;;;5083639;28;20044;-75
2023/02/11 02:36:35;;;;;;;2.80;1.42;;;6.50;89.90;;;;;;5081996;28;20047;-74
2023/02/11 02:39:07;;;;;;;3.88;1.60;;;6.50;89.80;;;;;;5082757;28;20047;-74
2023/02/11 02:41:34;;;;;;;3.13;1.63;;;6.50;89.80;;;;;;5082589;28;20478;-75
2023/02/11 02:44:00;;;;;;;2.92;1.80;;;6.50;89.80;;;;;;5083523;28;20039;-75
2023/02/11 02:46:28;;;;;;;4.28;1.70;;;6.40;89.80;;;;;;5063796;28;20040;-74
2023/02/11 02:48:55;;;;;;;3.00;1.50;;;6.50;89.90;;;;;;5082044;28;20036;-75
2023/02/11 02:51:54;;;;;;;2.53;1.50;;;6.40;89.90;;;;;;5047525;28;20742;-74
2023/02/11 02:54:49;;;;;;;2.88;1.50;;;6.40;90.00;;;;;;5079709;28;20108;-74
2023/02/11 02:57:39;;;;;;;3.38;1.50;;;6.40;90.00;;;;;;5062811;28;20040;-74
2023/02/11 03:00:22;;;;;;;3.33;1.80;;;6.40;90.00;;;;;;5082077;28;20117;-74
2023/02/11 03:03:18;;;;;;;3.05;1.58;;;6.40;90.00;;;;;;5081603;28;20043;-74
2023/02/11 03:05:54;;;;;;;4.93;1.92;;;6.40;90.00;;;;;;5081979;28;20041;-75
2023/02/11 03:08:40;;;;;;;4.65;1.90;;;6.40;90.00;;;;;;5063603;28;20448;-74
2023/02/11 03:11:08;;;;;;;3.40;1.50;;;6.40;90.00;;;;;;5063118;28;20116;-74
2023/02/11 03:13:38;;;;;;;3.47;1.65;;;6.50;90.00;;;;;;5080763;28;20051;-74
2023/02/11 03:16:10;;;;;;;3.85;1.52;;;6.40;90.00;;;;;;5083960;28;20135;-75
2023/02/11 03:18:39;;;;;;;2.60;1.88;;;6.40;90.00;;;;;;5063075;28;20051;-74
2023/02/11 03:21:09;;;;;;;4.00;1.83;;;6.40;90.00;;;;;;5062022;28;20144;-74
2023/02/11 03:23:43;;;;;;;3.00;1.60;;;6.30;90.00;;;;;;5080583;28;20066;-74
2023/02/11 03:26:21;;;;;;;4.95;2.08;;;6.30;90.00;;;;;;5064750;28;20045;-74
2023/02/11 03:28:59;;;;;;;4.22;1.95;;;6.20;90.00;;;;;;5080660;28;20127;-73
2023/02/11 03:31:36;;;;;;;3.65;1.77;;;6.30;90.00;;;;;;5063339;28;20445;-74
2023/02/11 03:34:13;;;;;;;3.55;1.95;;;6.40;90.00;;;;;;5078953;28;20120;-74
2023/02/11 03:36:47;;;;;;;3.83;1.70;;;6.30;90.00;;;;;;5063435;28;20055;-74
2023/02/11 03:39:18;;;;;;;4.20;2.20;;;6.30;90.00;;;;;;5061047;28;20452;-74
2023/02/11 03:41:47;;;;;;;3.90;1.60;;;6.30;90.00;;;;;;5062566;28;20367;-74
2023/02/11 03:44:14;;;;;;;2.85;1.80;;;6.30;90.10;;;;;;5080290;28;20041;-74
2023/02/11 03:46:43;;;;;;;2.88;1.77;;;6.30;90.10;;;;;;5063165;28;20044;-74
2023/02/11 03:49:13;;;;;;;4.68;1.65;;;6.40;90.10;;;;;;5062819;28;20043;-74
2023/02/11 03:51:39;;;;;;;4.70;2.13;;;6.30;90.10;;;;;;5063760;28;20075;-73
2023/02/11 03:54:13;;;;;;;4.95;1.90;;;6.30;90.10;;;;;;5062500;28;20093;-74
2023/02/11 03:56:47;;;;;;;4.63;2.00;;;6.30;90.10;;;;;;5063191;28;20040;-74
2023/02/11 03:59:13;;;;;;;4.55;1.75;;;6.30;90.10;;;;;;5062360;28;20040;-74
2023/02/11 04:01:39;;;;;;;4.10;1.80;;;6.30;90.10;;;;;;5064841;28;20478;-74
2023/02/11 04:04:04;;;;;;;6.97;2.15;;;6.30;90.10;;;;;;5062102;28;20048;-75
2023/02/11 04:06:30;;;;;;;4.10;1.98;;;6.30;90.10;;;;;;5062379;28;20544;-74
2023/02/11 04:08:56;;;;;;;4.88;2.00;;;6.30;90.10;;;;;;5061144;28;20391;-74
2023/02/11 04:11:21;;;;;;;3.22;1.70;;;6.30;90.10;;;;;;5080305;28;20040;-74
2023/02/11 04:13:47;;;;;;;4.28;1.88;;;6.30;90.40;;;;;;5079899;28;20090;-74
2023/02/11 04:16:12;;;;;;;4.85;1.80;;;6.30;90.10;;;;;;5079377;28;20135;-74
2023/02/11 04:18:38;;;;;;;3.65;1.88;;;6.40;90.20;;;;;;5061518;28;20127;-74
2023/02/11 04:21:04;;;;;;;2.85;1.50;;;6.30;90.20;;;;;;5080010;28;20071;-74
2023/02/11 04:23:29;;;;;;;3.60;1.67;;;6.30;90.20;;;;;;5043184;28;20468;-74
2023/02/11 04:25:55;;;;;;;4.00;1.70;;;6.40;90.20;;;;;;5061055;28;20075;-74
2023/02/11 04:28:21;;;;;;;2.80;1.60;;;6.40;90.20;;;;;;5042384;28;20045;-74
2023/02/11 04:30:49;;;;;;;3.22;1.73;;;6.40;90.20;;;;;;5061626;28;20103;-75
2023/02/11 04:33:14;;;;;;;3.05;1.70;;;6.40;90.50;;;;;;5060279;28;20055;-74
2023/02/11 04:35:40;;;;;;;3.65;1.80;;;6.40;90.20;;;;;;5061042;28;20040;-74
2023/02/11 04:38:06;;;;;;;3.00;1.63;;;6.40;90.20;;;;;;5078222;28;20051;-74
2023/02/11 04:40:31;;;;;;;3.13;1.77;;;6.40;90.20;;;;;;5078313;28;20040;-74
2023/02/11 04:42:57;;;;;;;2.97;1.50;;;6.40;90.20;;;;;;5059075;28;20049;-74
2023/02/11 04:45:22;;;;;;;3.95;1.83;;;6.40;90.20;;;;;;5079144;28;20037;-74
2023/02/11 04:47:48;;;;;;;3.47;1.70;;;6.40;90.30;;;;;;5060174;28;20513;-74
2023/02/11 04:50:14;;;;;;;6.15;2.08;;;6.40;90.30;;;;;;5079393;28;20047;-74
2023/02/11 04:52:40;;;;;;;2.90;1.90;;;6.40;90.30;;;;;;5060668;28;20075;-74
2023/02/11 04:55:06;;;;;;;2.90;1.70;;;6.40;90.30;;;;;;5059718;28;20057;-75
2023/02/11 04:57:31;;;;;;;4.97;1.80;;;6.40;90.30;;;;;;5077818;28;20559;-74
2023/02/11 04:59:57;;;;;;;2.67;1.60;;;6.40;90.30;;;;;;5077810;28;20489;-74
2023/02/11 05:02:22;;;;;;;3.22;1.75;;;6.40;90.30;;;;;;5079013;28;20036;-73
2023/02/11 05:04:48;;;;;;;2.80;1.70;;;6.40;90.30;;;;;;5059603;28;20048;-74
2023/02/11 05:07:14;;;;;;;2.90;1.52;;;6.40;90.30;;;;;;5078183;28;20045;-74
2023/02/11 05:09:39;;;;;;;3.63;1.88;;;6.40;90.30;;;;;;5060669;28;20056;-73
2023/02/11 05:12:05;;;;;;;3.65;2.08;;;6.40;90.30;;;;;;5079523;28;20037;-74
2023/02/11 05:14:32;;;;;;;4.72;2.00;;;6.40;90.30;;;;;;5077784;28;20049;-74
2023/02/11 05:16:58;;;;;;;3.80;2.00;;;6.40;90.30;;;;;;5079079;28;20033;-74
2023/02/11 05:19:28;;;;;;;3.45;2.10;;;6.40;90.60;;;;;;5060430;28;20039;-74
2023/02/11 05:21:53;;;;;;;5.10;1.92;;;6.40;90.30;;;;;;5043703;28;20036;-74
2023/02/11 05:24:19;;;;;;;4.63;2.20;;;6.40;90.30;;;;;;5045067;28;20379;-74
2023/02/11 05:26:44;;;;;;;6.43;2.53;;;6.40;90.30;;;;;;5060410;28;20086;-73
2023/02/11 05:29:10;;;;;;;4.50;2.10;;;6.40;90.30;;;;;;5078600;28;20060;-74
2023/02/11 05:31:36;;;;;;;4.30;2.20;;;6.40;90.30;;;;;;5060476;28;20044;-74
2023/02/11 05:34:02;;;;;;;3.95;2.20;;;6.40;90.30;;;;;;5061032;28;20032;-74
2023/02/11 05:36:29;;;;;;;5.93;2.13;;;6.40;90.40;;;;;;5078563;28;20494;-74
2023/02/11 05:38:54;;;;;;;4.57;2.38;;;6.40;90.40;;;;;;5060125;28;20040;-74
2023/02/11 05:41:20;;;;;;;4.32;2.20;;;6.40;90.40;;;;;;5077978;28;20039;-74
2023/02/11 05:43:49;;;;;;;3.80;1.98;;;6.40;90.40;;;;;;5043270;28;20036;-74
2023/02/11 05:46:16;;;;;;;3.28;2.05;;;6.40;90.40;;;;;;5078939;28;20124;-74
2023/02/11 05:48:42;;;;;;;4.53;2.25;;;6.40;90.40;;;;;;5078317;28;20036;-74
2023/02/11 05:51:08;;;;;;;3.80;2.03;;;6.40;90.40;;;;;;5078122;28;20055;-74
2023/02/11 05:53:34;;;;;;;5.35;2.15;;;6.40;90.40;;;;;;5077961;28;20556;-74
2023/02/11 05:56:00;;;;;;;5.53;2.08;;;6.40;90.40;;;;;;5042237;28;20056;-74
2023/02/11 05:58:25;;;;;;;5.13;2.30;;;6.40;90.50;;;;;;5077357;28;20048;-74
2023/02/11 06:00:51;;;;;;;3.42;1.98;;;6.40;90.50;;;;;;5057782;28;20051;-74
2023/02/11 06:03:17;;;;;;;2.50;1.65;;;6.40;90.50;;;;;;5041760;28;20371;-73
2023/02/11 06:05:43;;;;;;;4.35;1.83;;;6.40;90.50;;;;;;5076436;28;20033;-74
2023/02/11 06:08:09;;;;;;;4.10;2.22;;;6.40;90.50;;;;;;5076226;28;20090;-73
2023/02/11 06:10:35;;;;;;;3.58;1.98;;;6.40;90.50;;;;;;5042627;28;20048;-74
2023/02/11 06:13:01;;;;;;;3.85;1.95;;;6.40;90.50;;;;;;5076253;28;20046;-74
2023/02/11 06:15:27;;;;;;;5.07;2.20;;;6.40;90.50;;;;;;5058268;28;20071;-74
2023/02/11 06:17:52;;;;;;;3.03;1.77;;;6.40;90.80;;;;;;5077482;28;20036;-74
2023/02/11 06:20:19;;;;;;;4.20;2.05;;;6.40;90.50;;;;;;5077976;28;20056;-73
2023/02/11 06:22:45;;;;;;;4.80;2.03;;;6.40;90.50;;;;;;5077754;28;20041;-73
2023/02/11 06:25:11;;;;;;;4.05;2.30;;;6.40;90.50;;;;;;5076119;28;20037;-73
2023/02/11 06:27:37;;;;;;;4.35;2.25;;;6.40;90.50;;;;;;5041505;28;20474;-74
2023/02/11 06:30:05;;;;;;;6.00;2.45;;;6.40;90.60;;;;;;5061878;28;20099;-74
2023/02/11 06:32:31;;;;;;;4.60;2.30;;;6.40;90.60;;;;;;5063225;28;20036;-73
2023/02/11 06:34:56;;;;;;;4.65;2.50;;;6.40;90.60;;;;;;5079419;28;20097;-74
2023/02/11 06:37:22;;;;;;;5.57;2.33;;;6.40;90.60;;;;;;5079279;28;20037;-73
2023/02/11 06:39:48;;;;;;;5.18;2.40;;;6.30;90.60;;;;;;5080058;28;20463;-74
2023/02/11 06:42:13;;;;;;;5.50;2.40;;;6.40;90.60;;;;;;5061808;28;20052;-74
2023/02/11 06:44:39;;;;;;;5.00;2.65;;;6.40;90.60;;;;;;5061697;28;20098;-73
2023/02/11 06:47:04;;;;;;;5.13;2.75;;;6.40;90.60;;;;;;5079812;28;20036;-73
2023/02/11 06:49:30;;;;;;;6.22;2.78;;;6.40;90.60;;;;;;5061288;28;20401;-74
2023/02/11 06:51:56;;;;;;;5.32;2.78;;;6.40;90.60;;;;;;5061384;28;20093;-73
2023/02/11 06:54:21;;;;;;;4.95;2.72;;;6.40;90.60;;;;;;5059764;28;20045;-74
2023/02/11 06:56:47;;;;;;;5.47;2.85;;;6.40;90.60;;;;;;5079430;28;20103;-74
2023/02/11 06:59:19;;;;;;;4.97;3.03;;;6.40;90.60;;;;;;5061525;28;20073;-74
2023/02/11 07:01:45;;;;;;;5.93;2.80;;;6.40;90.60;;;;;;5061271;28;20047;-74
2023/02/11 07:04:11;;;;;;;4.78;2.50;;;6.40;90.60;;;;;;5078044;28;20036;-74
2023/02/11 07:06:37;;;;;;;3.97;2.30;;;6.50;90.70;;;;;;5044173;28;20123;-74
2023/02/11 07:09:04;;;;;;;5.15;2.88;;;6.50;90.70;;;;;;5080034;28;20128;-75
2023/02/11 07:11:31;;;;;;;4.50;2.53;;;6.40;90.70;;;;;;5045474;28;20051;-74
2023/02/11 07:14:04;;;;;;;4.60;2.70;;;6.40;90.70;;;;;;5062827;28;20036;-76
2023/02/11 07:16:31;;;;;;;6.45;2.75;;;6.40;90.70;;;;;;5080779;28;20109;-73
2023/02/11 07:18:57;;;;;;;5.50;2.80;;;6.40;90.70;;;;;;5079628;28;20049;-75
2023/02/11 07:21:23;;;;;;;6.20;2.95;;;6.50;90.70;;;;;;5062080;28;20537;-74
2023/02/11 07:23:49;;;;;;;5.70;2.95;;;6.40;90.70;;;;;;5060440;28;20053;-74
2023/02/11 07:26:18;;;;;;;6.88;2.92;;;6.50;90.70;;;;;;5079340;28;20044;-74
2023/02/11 07:28:45;;;;;;;4.70;2.70;;;6.50;90.70;;;;;;5080244;28;20067;-74
2023/02/11 07:31:15;;;;;;;6.22;2.70;;;6.50;90.70;;;;;;5045585;28;20044;-74
2023/02/11 07:33:41;;;;;;;7.00;3.50;;;6.50;90.70;;;;;;5079436;28;20040;-73
2023/02/11 07:36:09;;;;;;;6.57;3.53;;;6.40;90.70;;;;;;5060300;28;20128;-73
2023/02/11 07:38:36;;;;;;;4.70;2.65;;;6.50;90.80;;;;;;5060148;28;20051;-73
2023/02/11 07:41:04;;;;;;;6.30;3.03;;;6.50;90.80;;;;;;5077274;28;20132;-74
2023/02/11 07:43:31;;;;;;;4.93;2.67;;;6.50;90.80;;;;;;5045085;28;20048;-74
2023/02/11 07:45:56;;;;;;;5.15;2.88;;;6.50;90.80;;;;;;5042308;28;20183;-74
2023/02/11 07:48:22;;;;;;;5.43;2.83;;;6.50;90.80;;;;;;5079583;28;20479;-74
2023/02/11 07:50:47;;;;;;;5.95;3.10;;;6.50;90.80;;;;;;5060160;28;20513;-73
2023/02/11 07:53:13;;;;;;;7.72;2.72;;;6.50;90.80;;;;;;5078163;28;20048;-74
2023/02/11 07:55:39;;;;;;;6.70;3.28;;;6.60;90.80;;;;;;5062079;28;20106;-74
2023/02/11 07:58:04;;;;;;;5.40;3.20;;;6.60;90.80;;;;;;5044561;28;20127;-74
2023/02/11 08:00:30;;;;;;;6.00;3.00;;;6.70;90.80;;;;;;5045300;28;20060;-74
2023/02/11 08:02:56;;;;;;;6.18;3.50;;;6.60;90.80;;;;;;5080832;28;20096;-74
2023/02/11 08:05:22;;;;;;;7.00;3.70;;;6.60;90.80;;;;;;5060995;28;20090;-74
2023/02/11 08:07:52;;;;;;;6.53;3.58;;;6.60;90.80;;;;;;5060619;28;20045;-74
2023/02/11 08:10:18;;;;;;;6.93;3.40;;;6.60;90.80;;;;;;5080332;28;20068;-74
2023/02/11 08:12:43;;;;;;;8.95;3.83;;;6.70;90.80;;;;;;5044305;28;20457;-74
2023/02/11 08:15:09;;;;;;;8.68;3.70;;;6.70;90.80;;;;;;5060452;28;20526;-74
2023/02/11 08:17:35;;;;;;;6.38;3.45;;;6.70;90.80;;;;;;5043943;28;20084;-73
2023/02/11 08:20:02;;;;;;;8.90;4.50;;;6.70;90.80;;;;;;5061142;28;20051;-74
2023/02/11 08:22:31;;;;;;;8.77;4.13;;;6.80;90.80;;;;;;5086256;28;20036;-74
2023/02/11 08:24:57;;;;;;;8.00;4.78;;;6.80;90.80;;;;;;5088281;28;20066;-75
2023/02/11 08:27:23;;;;;;;10.15;4.65;;;6.80;90.80;;;;;;5068801;28;20048;-74
2023/02/11 08:29:48;;;;;;;7.60;4.10;;;6.80;90.80;;;;;;5088318;28;20044;-74
2023/02/11 08:32:14;;;;;;;7.55;4.40;;;6.80;90.80;;;;;;5068049;28;20044;-75
2023/02/11 08:34:40;;;;;;;8.57;4.55;;;6.80;90.70;;;;;;5067849;28;20044;-74
2023/02/11 08:37:05;;;;;;;9.27;5.07;;;6.90;90.80;;;;;;5088666;28;20040;-74
2023/02/11 08:39:31;;;;;;;10.27;5.65;;;6.90;90.80;;;;;;5083870;28;20042;-75
2023/02/11 08:41:56;;;;;;;11.35;5.70;;;6.90;90.70;;;;;;5088435;28;20100;-75
2023/02/11 08:44:24;;;;;;;10.25;5.93;;;7.00;90.70;;;;;;5088247;28;20037;-74
2023/02/11 08:46:50;;;;;;;11.57;5.97;;;7.00;90.70;;;;;;5070056;28;20052;-75
2023/02/11 08:49:17;;;;;;;13.85;6.35;;;7.00;90.70;;;;;;5085111;28;20040;-74
2023/02/11 08:51:43;;;;;;;11.50;6.20;;;7.00;90.70;;;;;;5067146;28;20051;-74
2023/02/11 08:54:09;;;;;;;10.60;6.03;;;7.00;90.70;;;;;;5068758;28;20050;-75
2023/02/11 08:56:35;;;;;;;9.70;5.18;;;7.10;90.70;;;;;;5088671;28;20063;-75
2023/02/11 08:59:01;;;;;;;10.73;5.53;;;7.10;90.70;;;;;;5071626;28;20029;-75
2023/02/11 09:01:29;;;;;;;9.68;5.05;;;7.20;90.80;;;;;;5067281;28;20051;-76
2023/02/11 09:03:56;;;;;;;8.50;4.82;;;7.20;90.80;;;;;;5084737;28;20036;-74
2023/02/11 09:06:22;;;;;;;10.20;5.80;;;7.20;90.70;;;;;;5063870;28;20486;-75
2023/02/11 09:08:51;;;;;;;11.27;5.32;;;7.20;90.70;;;;;;5067094;28;20040;-74
2023/02/11 09:11:19;;;;;;;10.57;6.05;;;7.30;90.70;;;;;;5071625;28;20517;-75
2023/02/11 09:13:45;;;;;;;11.10;6.18;;;7.30;90.70;;;;;;5086678;28;20048;-75
2023/02/11 09:16:17;;;;;;;10.23;5.45;;;7.30;90.70;;;;;;5068764;28;20049;-75
2023/02/11 09:18:44;;;;;;;9.90;5.60;;;7.40;90.80;;;;;;5069227;28;20041;-75
2023/02/11 09:21:14;;;;;;;12.48;6.18;;;7.40;90.70;;;;;;5087869;28;20058;-75
2023/02/11 09:23:42;;;;;;;12.75;6.32;;;7.40;90.70;;;;;;5079828;28;20186;-74
2023/02/11 09:26:14;;;;;;;10.60;5.93;;;7.50;90.70;;;;;;5080359;28;20040;-75
2023/02/11 09:28:40;;;;;;;10.60;5.63;;;7.50;90.70;;;;;;5062562;28;20052;-73
2023/02/11 09:31:07;;;;;;;11.43;5.80;;;7.50;91.00;;;;;;5074099;28;20041;-73
2023/02/11 09:33:33;;;;;;;10.05;5.82;;;7.60;90.70;;;;;;5074229;28;20064;-73
2023/02/11 09:36:01;;;;;;;11.02;6.55;;;7.60;90.70;;;;;;5074508;28;20072;-73
2023/02/11 09:38:27;;;;;;;12.00;6.28;;;7.60;90.70;;;;;;5075871;28;20106;-73
2023/02/11 09:40:53;;;;;;;10.57;5.93;;;7.60;90.70;;;;;;5056324;28;20479;-73
2023/02/11 09:43:23;;;;;;;14.00;6.55;;;7.70;90.70;;;;;;5073927;28;20090;-73
